LPFRLPPR

Guest
Details From LPFR - Faro
To LPPR - Porto
Flight Number -
Tags decoded
Created
Modified
Stats Distance 256 nm / 475 km
Max Altitude 0 ft / 0 m
Waypoints 3
Social Downloads 4
Likes 0
Share VATSIM

Download

Looking for another format? Having issues loading an existing format? Contact us
Advertisement - Login to hide

Notes

Requested: LPFR SOTEX ABLEG LPPR

Route

LPFR SOTEX LPPR

ID Type Via Altitude Latitude Longitude Leg Dist Tot Dist Heading (true) Name
O LPFR APT - 0 ft / 0 m 37.01534˚ -7.97233˚ - 0 nm - Faro
SOTEX FIX - 0 ft / 0 m 38.29278˚ -8.22000˚ 77 nm 77 nm 351° / 351° -
O LPPR APT - 0 ft / 0 m 41.24793˚ -8.68122˚ 178 nm 256 nm 353° / 353° Porto

Altitude Profile

Advertisement - Login to hide

Weather


0- 5 10 15 20 25 30 35+ Temperature / ° C

Clouds and Precipitation
Forecast for 2017-12-11 06:00 UTC. Updated an hour ago

Ground ~20,000 ft ~40,000 ft Winds

LPFR

Details ICAO LPFR (FAO)
Name Faro
Region Portugal
Timezone Europe/Lisbon (UTC+0.0)
Stats Elevation 24 ft / 7 m (AMSL)
Location 37.015336° -7.972327°
Runways 1
Magnetic Variation 1.937° W

METAR

LPFR 110400Z 28019KT 8000 -RA FEW011 SCT016 FEW022CB 13/13 Q1000 RESHRA

Decode

TAF

TAF LPFR 102300Z 1100/1124 24025KT 9999 SCT012 BKN018 BECMG 1100/1102 24025G35KT 6000 -RA SCT008 BKN015 TEMPO 1100/1104 24030G45KT 2000 +RA BR SCT004 BKN008 BECMG 1104/1106 30015KT 9999 NSW FEW015 SCT030 TEMPO 1104/1115 8000 SHRAGS BKN015 FEW025CB PROB30 TEMPO 1104/1112 30017G30KT

Decode

Departure Runways

ID Width Length Bearing (true) Bearing (mag) Surface Threshold Offset Overrun Length
10 148 ft / 45 m 8,148 ft / 2,484 m 100.08° 102.02° Asphalt 148 ft / 45 m 0 ft / 0 m
28 148 ft / 45 m 8,148 ft / 2,484 m 280.10° 282.04° Asphalt 148 ft / 45 m 0 ft / 0 m

LPPR

Details ICAO LPPR (OPO)
Name Porto
Region Portugal
Timezone Europe/Lisbon (UTC+0.0)
Stats Elevation 228 ft / 69 m (AMSL)
Location 41.247932° -8.681221°
Runways 1
Magnetic Variation 2.341° W

METAR

LPPR 110400Z 35016KT 300V360 7000 -SHRA SCT020 FEW025CB BKN030 09/07 Q0995

Decode

TAF

TAF AMD LPPR 110400Z 1104/1124 32015KT 9999 SCT012 SCT025 TEMPO 1104/1112 32020G32KT 5000 SHRAGS BKN010 FEW018CB PROB30 TEMPO 1104/1108 3000 TSRAGS SCT016CB BECMG 1112/1114 35015KT SCT018 PROB40 TEMPO 1112/1116 35020G33KT BECMG 1116/1118 35010KT

Decode

Destination Runways

ID Width Length Bearing (true) Bearing (mag) Surface Threshold Offset Overrun Length
17 148 ft / 45 m 11,451 ft / 3,490 m 168.88° 171.22° Asphalt 984 ft / 300 m 220 ft / 67 m
35 148 ft / 45 m 11,451 ft / 3,490 m 348.89° 351.23° Asphalt 492 ft / 150 m 370 ft / 113 m

Approach Navaids

Runway Type Ident Frequency Range Bearing (true) Bearing (mag) Slope Elevation
17 Localiser PR 109.90 MHz 18 nm / 33 km 168.87° 171.21° - 228 ft / 69 m (AMSL)
17 Glidescope PR 109.90 MHz 10 nm / 19 km 168.88° 171.22° 2.72° 228 ft / 69 m (AMSL)
17 DME PR 109.90 MHz 18 nm / 33 km - - - 228 ft / 69 m (AMSL)

Popular Alternatives